sensor_id;sensor_type;location;lat;lon;timestamp;temperature;humidity
67273;DHT22;54190;49.770;9.250;2023-05-14T00:00:20;10.30;99.90
67273;DHT22;54190;49.770;9.250;2023-05-14T00:02:45;10.30;99.90
67273;DHT22;54190;49.770;9.250;2023-05-14T00:05:11;10.20;99.90
67273;DHT22;54190;49.770;9.250;2023-05-14T00:07:37;10.20;99.90
67273;DHT22;54190;49.770;9.250;2023-05-14T00:10:02;10.20;99.90
67273;DHT22;54190;49.770;9.250;2023-05-14T00:12:28;10.20;99.90
67273;DHT22;54190;49.770;9.250;2023-05-14T00:14:54;10.10;99.90
67273;DHT22;54190;49.770;9.250;2023-05-14T00:17:20;10.10;99.90
67273;DHT22;54190;49.770;9.250;2023-05-14T00:19:46;10.10;99.90
67273;DHT22;54190;49.770;9.250;2023-05-14T00:22:12;10.10;99.90
67273;DHT22;54190;49.770;9.250;2023-05-14T00:24:37;10.10;99.90
67273;DHT22;54190;49.770;9.250;2023-05-14T00:27:03;10.00;99.90
67273;DHT22;54190;49.770;9.250;2023-05-14T00:29:29;10.00;99.90
67273;DHT22;54190;49.770;9.250;2023-05-14T00:31:54;9.80;99.90
67273;DHT22;54190;49.770;9.250;2023-05-14T00:34:20;9.70;99.90
67273;DHT22;54190;49.770;9.250;2023-05-14T00:36:46;9.50;99.90
67273;DHT22;54190;49.770;9.250;2023-05-14T00:39:13;9.50;99.90
67273;DHT22;54190;49.770;9.250;2023-05-14T00:41:38;9.50;99.90
67273;DHT22;54190;49.770;9.250;2023-05-14T00:44:04;9.50;99.90
67273;DHT22;54190;49.770;9.250;2023-05-14T00:46:30;9.50;99.90
67273;DHT22;54190;49.770;9.250;2023-05-14T00:48:56;9.60;99.90
67273;DHT22;54190;49.770;9.250;2023-05-14T00:51:23;9.60;99.90
67273;DHT22;54190;49.770;9.250;2023-05-14T00:53:49;9.60;99.90
67273;DHT22;54190;49.770;9.250;2023-05-14T00:56:15;9.60;99.90
67273;DHT22;54190;49.770;9.250;2023-05-14T00:58:41;9.60;99.90
67273;DHT22;54190;49.770;9.250;2023-05-14T01:01:07;9.60;99.90
67273;DHT22;54190;49.770;9.250;2023-05-14T01:03:33;9.50;99.90
67273;DHT22;54190;49.770;9.250;2023-05-14T01:06:16;9.50;99.90
67273;DHT22;54190;49.770;9.250;2023-05-14T01:08:59;9.40;99.90
67273;DHT22;54190;49.770;9.250;2023-05-14T01:14:20;9.40;99.90
67273;DHT22;54190;49.770;9.250;2023-05-14T01:16:51;9.40;99.90
67273;DHT22;54190;49.770;9.250;2023-05-14T01:19:28;9.30;99.90
67273;DHT22;54190;49.770;9.250;2023-05-14T01:21:57;9.30;99.90
67273;DHT22;54190;49.770;9.250;2023-05-14T01:24:23;9.20;99.90
67273;DHT22;54190;49.770;9.250;2023-05-14T01:26:49;9.20;99.90
67273;DHT22;54190;49.770;9.250;2023-05-14T01:29:18;9.20;99.90
67273;DHT22;54190;49.770;9.250;2023-05-14T01:31:47;9.20;99.90
67273;DHT22;54190;49.770;9.250;2023-05-14T01:34:13;9.10;99.90
67273;DHT22;54190;49.770;9.250;2023-05-14T01:36:41;9.10;99.90
67273;DHT22;54190;49.770;9.250;2023-05-14T01:39:07;9.10;99.90
67273;DHT22;54190;49.770;9.250;2023-05-14T01:41:35;9.10;99.90
67273;DHT22;54190;49.770;9.250;2023-05-14T01:44:02;9.10;99.90
67273;DHT22;54190;49.770;9.250;2023-05-14T01:46:31;9.00;99.90
67273;DHT22;54190;49.770;9.250;2023-05-14T01:48:57;9.00;99.90
67273;DHT22;54190;49.770;9.250;2023-05-14T01:51:23;8.90;99.90
67273;DHT22;54190;49.770;9.250;2023-05-14T01:53:49;8.90;99.90
67273;DHT22;54190;49.770;9.250;2023-05-14T01:56:16;8.90;99.90
67273;DHT22;54190;49.770;9.250;2023-05-14T01:58:41;8.90;99.90
67273;DHT22;54190;49.770;9.250;2023-05-14T02:01:07;8.90;99.90
67273;DHT22;54190;49.770;9.250;2023-05-14T02:03:32;8.90;99.90
67273;DHT22;54190;49.770;9.250;2023-05-14T02:05:58;8.90;99.90
67273;DHT22;54190;49.770;9.250;2023-05-14T02:08:24;8.80;99.90
67273;DHT22;54190;49.770;9.250;2023-05-14T02:10:50;8.80;99.90
67273;DHT22;54190;49.770;9.250;2023-05-14T02:13:16;8.80;99.90
67273;DHT22;54190;49.770;9.250;2023-05-14T02:15:41;8.70;99.90
67273;DHT22;54190;49.770;9.250;2023-05-14T02:18:07;8.70;99.90
67273;DHT22;54190;49.770;9.250;2023-05-14T02:20:33;8.60;99.90
67273;DHT22;54190;49.770;9.250;2023-05-14T02:22:58;8.60;99.90
67273;DHT22;54190;49.770;9.250;2023-05-14T02:25:24;8.60;99.90
67273;DHT22;54190;49.770;9.250;2023-05-14T02:27:50;8.50;99.90
67273;DHT22;54190;49.770;9.250;2023-05-14T02:30:16;8.50;99.90
67273;DHT22;54190;49.770;9.250;2023-05-14T02:32:42;8.50;99.90
67273;DHT22;54190;49.770;9.250;2023-05-14T02:35:08;8.50;99.90
67273;DHT22;54190;49.770;9.250;2023-05-14T02:37:34;8.50;99.90
67273;DHT22;54190;49.770;9.250;2023-05-14T02:40:00;8.50;99.90
67273;DHT22;54190;49.770;9.250;2023-05-14T02:42:25;8.40;99.90
67273;DHT22;54190;49.770;9.250;2023-05-14T02:44:51;8.40;99.90
67273;DHT22;54190;49.770;9.250;2023-05-14T02:47:17;8.40;99.90
67273;DHT22;54190;49.770;9.250;2023-05-14T02:49:43;8.30;99.90
67273;DHT22;54190;49.770;9.250;2023-05-14T02:52:08;8.30;99.90
67273;DHT22;54190;49.770;9.250;2023-05-14T02:54:34;8.30;99.90
67273;DHT22;54190;49.770;9.250;2023-05-14T02:57:00;8.20;99.90
67273;DHT22;54190;49.770;9.250;2023-05-14T02:59:25;8.30;99.90
67273;DHT22;54190;49.770;9.250;2023-05-14T03:01:51;8.30;99.90
67273;DHT22;54190;49.770;9.250;2023-05-14T03:04:17;8.20;99.90
67273;DHT22;54190;49.770;9.250;2023-05-14T03:06:43;8.20;99.90
67273;DHT22;54190;49.770;9.250;2023-05-14T03:09:08;8.20;99.90
67273;DHT22;54190;49.770;9.250;2023-05-14T03:11:34;8.20;99.90
67273;DHT22;54190;49.770;9.250;2023-05-14T03:14:00;8.10;99.90
67273;DHT22;54190;49.770;9.250;2023-05-14T03:16:26;8.10;99.90
67273;DHT22;54190;49.770;9.250;2023-05-14T03:18:51;8.10;99.90
67273;DHT22;54190;49.770;9.250;2023-05-14T03:21:17;8.20;99.90
67273;DHT22;54190;49.770;9.250;2023-05-14T03:23:43;8.10;99.90
67273;DHT22;54190;49.770;9.250;2023-05-14T03:26:08;8.10;99.90
67273;DHT22;54190;49.770;9.250;2023-05-14T03:28:34;8.00;99.90
67273;DHT22;54190;49.770;9.250;2023-05-14T03:31:00;8.10;99.90
67273;DHT22;54190;49.770;9.250;2023-05-14T03:33:25;8.10;99.90
67273;DHT22;54190;49.770;9.250;2023-05-14T03:35:51;8.20;99.90
67273;DHT22;54190;49.770;9.250;2023-05-14T03:38:17;8.20;99.90
67273;DHT22;54190;49.770;9.250;2023-05-14T03:40:45;8.30;99.90
67273;DHT22;54190;49.770;9.250;2023-05-14T03:43:11;8.30;99.90
67273;DHT22;54190;49.770;9.250;2023-05-14T03:45:38;8.30;99.90
67273;DHT22;54190;49.770;9.250;2023-05-14T03:48:04;8.30;99.90
67273;DHT22;54190;49.770;9.250;2023-05-14T03:50:31;8.30;99.90
67273;DHT22;54190;49.770;9.250;2023-05-14T03:52:56;8.30;99.90
67273;DHT22;54190;49.770;9.250;2023-05-14T03:55:22;8.30;99.90
67273;DHT22;54190;49.770;9.250;2023-05-14T03:57:48;8.40;99.90
67273;DHT22;54190;49.770;9.250;2023-05-14T04:00:14;8.40;99.90
67273;DHT22;54190;49.770;9.250;2023-05-14T04:02:43;8.40;99.90
67273;DHT22;54190;49.770;9.250;2023-05-14T04:05:08;8.40;99.90
67273;DHT22;54190;49.770;9.250;2023-05-14T04:07:34;8.40;99.90
67273;DHT22;54190;49.770;9.250;2023-05-14T04:10:01;8.50;99.90
67273;DHT22;54190;49.770;9.250;2023-05-14T04:12:27;8.60;99.90
67273;DHT22;54190;49.770;9.250;2023-05-14T04:14:53;8.60;99.90
67273;DHT22;54190;49.770;9.250;2023-05-14T04:17:18;8.50;99.90
67273;DHT22;54190;49.770;9.250;2023-05-14T04:19:44;8.50;99.90
67273;DHT22;54190;49.770;9.250;2023-05-14T04:22:10;8.50;99.90
67273;DHT22;54190;49.770;9.250;2023-05-14T04:24:35;8.50;99.90
67273;DHT22;54190;49.770;9.250;2023-05-14T04:27:01;8.60;99.90
67273;DHT22;54190;49.770;9.250;2023-05-14T04:29:27;8.60;99.90
67273;DHT22;54190;49.770;9.250;2023-05-14T04:31:52;8.60;99.90
67273;DHT22;54190;49.770;9.250;2023-05-14T04:34:18;8.70;99.90
67273;DHT22;54190;49.770;9.250;2023-05-14T04:36:43;8.70;99.90
67273;DHT22;54190;49.770;9.250;2023-05-14T04:39:09;8.70;99.90
67273;DHT22;54190;49.770;9.250;2023-05-14T04:41:37;8.70;99.90
67273;DHT22;54190;49.770;9.250;2023-05-14T04:44:02;8.70;99.90
67273;DHT22;54190;49.770;9.250;2023-05-14T04:46:28;8.80;99.90
67273;DHT22;54190;49.770;9.250;2023-05-14T04:48:54;8.80;99.90
67273;DHT22;54190;49.770;9.250;2023-05-14T04:51:20;8.80;99.90
67273;DHT22;54190;49.770;9.250;2023-05-14T04:53:45;8.80;99.90
67273;DHT22;54190;49.770;9.250;2023-05-14T04:56:11;8.80;99.90
67273;DHT22;54190;49.770;9.250;2023-05-14T04:58:36;8.80;99.90
67273;DHT22;54190;49.770;9.250;2023-05-14T05:01:03;8.90;99.90
67273;DHT22;54190;49.770;9.250;2023-05-14T05:03:29;8.90;99.90
67273;DHT22;54190;49.770;9.250;2023-05-14T05:05:55;8.90;99.90
67273;DHT22;54190;49.770;9.250;2023-05-14T05:08:21;8.80;99.90
67273;DHT22;54190;49.770;9.250;2023-05-14T05:10:47;8.70;99.90
67273;DHT22;54190;49.770;9.250;2023-05-14T05:13:12;8.70;99.90
67273;DHT22;54190;49.770;9.250;2023-05-14T05:15:39;8.80;99.90
67273;DHT22;54190;49.770;9.250;2023-05-14T05:18:05;8.80;99.90
67273;DHT22;54190;49.770;9.250;2023-05-14T05:20:31;8.90;99.90
67273;DHT22;54190;49.770;9.250;2023-05-14T05:22:57;9.00;99.90
67273;DHT22;54190;49.770;9.250;2023-05-14T05:25:22;9.00;99.90
67273;DHT22;54190;49.770;9.250;2023-05-14T05:27:48;9.10;99.90
67273;DHT22;54190;49.770;9.250;2023-05-14T05:30:13;9.10;99.90
67273;DHT22;54190;49.770;9.250;2023-05-14T05:32:39;9.10;99.90
67273;DHT22;54190;49.770;9.250;2023-05-14T05:35:05;9.20;99.90
67273;DHT22;54190;49.770;9.250;2023-05-14T05:37:31;9.30;99.90
67273;DHT22;54190;49.770;9.250;2023-05-14T05:39:57;9.30;99.90
67273;DHT22;54190;49.770;9.250;2023-05-14T05:42:23;9.40;99.90
67273;DHT22;54190;49.770;9.250;2023-05-14T05:44:48;9.40;99.90
67273;DHT22;54190;49.770;9.250;2023-05-14T05:47:14;9.50;99.90
67273;DHT22;54190;49.770;9.250;2023-05-14T05:49:40;9.50;99.90
67273;DHT22;54190;49.770;9.250;2023-05-14T05:52:06;9.50;99.90
67273;DHT22;54190;49.770;9.250;2023-05-14T05:54:31;9.60;99.90
67273;DHT22;54190;49.770;9.250;2023-05-14T05:56:58;9.60;99.90
67273;DHT22;54190;49.770;9.250;2023-05-14T05:59:24;9.70;99.90
67273;DHT22;54190;49.770;9.250;2023-05-14T06:01:49;9.70;99.90
67273;DHT22;54190;49.770;9.250;2023-05-14T06:04:15;9.80;99.90
67273;DHT22;54190;49.770;9.250;2023-05-14T06:06:41;9.80;99.90
67273;DHT22;54190;49.770;9.250;2023-05-14T06:09:07;9.80;99.90
67273;DHT22;54190;49.770;9.250;2023-05-14T06:11:33;9.70;99.90
67273;DHT22;54190;49.770;9.250;2023-05-14T06:13:59;9.70;99.90
67273;DHT22;54190;49.770;9.250;2023-05-14T06:16:25;9.80;99.90
67273;DHT22;54190;49.770;9.250;2023-05-14T06:18:51;9.90;99.90
67273;DHT22;54190;49.770;9.250;2023-05-14T06:21:17;10.00;99.90
67273;DHT22;54190;49.770;9.250;2023-05-14T06:23:43;10.00;99.90
67273;DHT22;54190;49.770;9.250;2023-05-14T06:26:09;10.10;99.90
67273;DHT22;54190;49.770;9.250;2023-05-14T06:28:35;10.20;99.90
67273;DHT22;54190;49.770;9.250;2023-05-14T06:31:00;10.30;99.90
67273;DHT22;54190;49.770;9.250;2023-05-14T06:33:26;10.30;99.90
67273;DHT22;54190;49.770;9.250;2023-05-14T06:36:04;10.40;99.90
67273;DHT22;54190;49.770;9.250;2023-05-14T06:38:30;10.50;99.90
67273;DHT22;54190;49.770;9.250;2023-05-14T06:40:55;10.50;99.90
67273;DHT22;54190;49.770;9.250;2023-05-14T06:43:21;10.60;99.90
67273;DHT22;54190;49.770;9.250;2023-05-14T06:45:50;10.70;99.90
67273;DHT22;54190;49.770;9.250;2023-05-14T06:48:16;10.70;99.90
67273;DHT22;54190;49.770;9.250;2023-05-14T06:50:43;10.80;99.90
67273;DHT22;54190;49.770;9.250;2023-05-14T06:53:09;10.90;99.90
67273;DHT22;54190;49.770;9.250;2023-05-14T06:55:35;11.00;99.90
67273;DHT22;54190;49.770;9.250;2023-05-14T06:58:01;11.00;99.90
67273;DHT22;54190;49.770;9.250;2023-05-14T07:00:27;11.10;99.90
67273;DHT22;54190;49.770;9.250;2023-05-14T07:02:52;11.20;99.90
67273;DHT22;54190;49.770;9.250;2023-05-14T07:05:18;11.30;99.90
67273;DHT22;54190;49.770;9.250;2023-05-14T07:07:44;11.30;99.90
67273;DHT22;54190;49.770;9.250;2023-05-14T07:10:10;11.40;99.90
67273;DHT22;54190;49.770;9.250;2023-05-14T07:12:35;11.50;99.90
67273;DHT22;54190;49.770;9.250;2023-05-14T07:15:01;11.60;99.90
67273;DHT22;54190;49.770;9.250;2023-05-14T07:17:27;11.60;99.90
67273;DHT22;54190;49.770;9.250;2023-05-14T07:19:52;11.70;99.90
67273;DHT22;54190;49.770;9.250;2023-05-14T07:22:20;11.80;99.90
67273;DHT22;54190;49.770;9.250;2023-05-14T07:24:46;11.90;99.90
67273;DHT22;54190;49.770;9.250;2023-05-14T07:27:12;12.00;99.90
67273;DHT22;54190;49.770;9.250;2023-05-14T07:29:37;12.00;99.90
67273;DHT22;54190;49.770;9.250;2023-05-14T07:32:03;12.10;99.90
67273;DHT22;54190;49.770;9.250;2023-05-14T07:34:29;12.30;99.90
67273;DHT22;54190;49.770;9.250;2023-05-14T07:36:55;12.40;99.90
67273;DHT22;54190;49.770;9.250;2023-05-14T07:39:21;12.60;99.90
67273;DHT22;54190;49.770;9.250;2023-05-14T07:41:47;12.70;99.90
67273;DHT22;54190;49.770;9.250;2023-05-14T07:44:14;12.80;99.90
67273;DHT22;54190;49.770;9.250;2023-05-14T07:46:41;12.80;99.90
67273;DHT22;54190;49.770;9.250;2023-05-14T07:49:06;12.90;99.90
67273;DHT22;54190;49.770;9.250;2023-05-14T07:51:32;13.00;99.90
67273;DHT22;54190;49.770;9.250;2023-05-14T07:53:58;13.20;99.90
67273;DHT22;54190;49.770;9.250;2023-05-14T07:56:23;13.40;99.90
67273;DHT22;54190;49.770;9.250;2023-05-14T07:58:49;13.50;99.90
67273;DHT22;54190;49.770;9.250;2023-05-14T08:01:15;13.60;99.90
67273;DHT22;54190;49.770;9.250;2023-05-14T08:03:41;13.60;99.90
67273;DHT22;54190;49.770;9.250;2023-05-14T08:06:07;13.70;99.90
67273;DHT22;54190;49.770;9.250;2023-05-14T08:08:33;13.80;99.90
67273;DHT22;54190;49.770;9.250;2023-05-14T08:10:59;13.90;99.90
67273;DHT22;54190;49.770;9.250;2023-05-14T08:13:25;14.00;99.90
67273;DHT22;54190;49.770;9.250;2023-05-14T08:15:50;14.10;99.90
67273;DHT22;54190;49.770;9.250;2023-05-14T08:18:16;14.10;99.90
67273;DHT22;54190;49.770;9.250;2023-05-14T08:20:42;14.30;99.90
67273;DHT22;54190;49.770;9.250;2023-05-14T08:23:08;14.50;99.90
67273;DHT22;54190;49.770;9.250;2023-05-14T08:25:33;14.60;99.90
67273;DHT22;54190;49.770;9.250;2023-05-14T08:27:59;14.60;99.90
67273;DHT22;54190;49.770;9.250;2023-05-14T08:30:26;14.70;99.90
67273;DHT22;54190;49.770;9.250;2023-05-14T08:32:52;14.70;99.90
67273;DHT22;54190;49.770;9.250;2023-05-14T08:35:17;14.70;99.90
67273;DHT22;54190;49.770;9.250;2023-05-14T08:37:44;14.80;99.90
67273;DHT22;54190;49.770;9.250;2023-05-14T08:40:10;14.90;99.90
67273;DHT22;54190;49.770;9.250;2023-05-14T08:42:39;14.90;99.90
67273;DHT22;54190;49.770;9.250;2023-05-14T08:45:11;14.90;99.90
67273;DHT22;54190;49.770;9.250;2023-05-14T08:47:38;15.00;99.90
67273;DHT22;54190;49.770;9.250;2023-05-14T08:50:05;15.10;99.90
67273;DHT22;54190;49.770;9.250;2023-05-14T08:52:32;15.30;99.90
67273;DHT22;54190;49.770;9.250;2023-05-14T08:55:01;15.40;99.90
67273;DHT22;54190;49.770;9.250;2023-05-14T08:57:27;15.70;99.90
67273;DHT22;54190;49.770;9.250;2023-05-14T08:59:54;16.00;99.90
67273;DHT22;54190;49.770;9.250;2023-05-14T09:02:23;16.10;99.90
67273;DHT22;54190;49.770;9.250;2023-05-14T09:04:55;16.00;99.90
67273;DHT22;54190;49.770;9.250;2023-05-14T09:07:21;16.00;99.90
67273;DHT22;54190;49.770;9.250;2023-05-14T09:09:48;16.10;99.90
67273;DHT22;54190;49.770;9.250;2023-05-14T09:12:14;16.00;99.90
67273;DHT22;54190;49.770;9.250;2023-05-14T09:14:39;15.90;99.90
67273;DHT22;54190;49.770;9.250;2023-05-14T09:17:05;15.90;99.90
67273;DHT22;54190;49.770;9.250;2023-05-14T09:19:32;16.00;99.90
67273;DHT22;54190;49.770;9.250;2023-05-14T09:21:57;16.10;99.90
67273;DHT22;54190;49.770;9.250;2023-05-14T09:24:26;16.00;99.90
67273;DHT22;54190;49.770;9.250;2023-05-14T09:26:56;15.90;99.90
67273;DHT22;54190;49.770;9.250;2023-05-14T09:29:26;15.90;99.90
67273;DHT22;54190;49.770;9.250;2023-05-14T09:31:53;15.90;99.90
67273;DHT22;54190;49.770;9.250;2023-05-14T09:34:31;15.80;99.90
67273;DHT22;54190;49.770;9.250;2023-05-14T09:37:02;15.70;99.90
67273;DHT22;54190;49.770;9.250;2023-05-14T09:39:29;15.80;99.90
67273;DHT22;54190;49.770;9.250;2023-05-14T09:41:55;15.70;99.90
67273;DHT22;54190;49.770;9.250;2023-05-14T09:44:22;15.70;99.90
67273;DHT22;54190;49.770;9.250;2023-05-14T09:46:48;15.70;99.90
67273;DHT22;54190;49.770;9.250;2023-05-14T09:49:14;15.80;99.90
67273;DHT22;54190;49.770;9.250;2023-05-14T09:51:40;15.80;99.90
67273;DHT22;54190;49.770;9.250;2023-05-14T09:54:06;15.80;99.90
67273;DHT22;54190;49.770;9.250;2023-05-14T09:56:33;15.80;99.90
67273;DHT22;54190;49.770;9.250;2023-05-14T09:58:59;15.90;99.90
67273;DHT22;54190;49.770;9.250;2023-05-14T10:01:27;15.90;99.90
67273;DHT22;54190;49.770;9.250;2023-05-14T10:03:54;15.80;99.90
67273;DHT22;54190;49.770;9.250;2023-05-14T10:06:27;15.80;99.90
67273;DHT22;54190;49.770;9.250;2023-05-14T10:08:56;15.80;99.90
67273;DHT22;54190;49.770;9.250;2023-05-14T10:11:30;15.90;99.90
67273;DHT22;54190;49.770;9.250;2023-05-14T10:14:12;15.90;99.90
67273;DHT22;54190;49.770;9.250;2023-05-14T10:17:00;15.90;99.90
67273;DHT22;54190;49.770;9.250;2023-05-14T10:19:31;15.90;99.90
67273;DHT22;54190;49.770;9.250;2023-05-14T10:22:03;15.90;99.90
67273;DHT22;54190;49.770;9.250;2023-05-14T10:24:30;15.80;99.90
67273;DHT22;54190;49.770;9.250;2023-05-14T10:26:56;15.90;99.90
67273;DHT22;54190;49.770;9.250;2023-05-14T10:29:36;15.90;99.90
67273;DHT22;54190;49.770;9.250;2023-05-14T10:32:06;15.80;99.90
67273;DHT22;54190;49.770;9.250;2023-05-14T10:34:42;15.80;99.90
67273;DHT22;54190;49.770;9.250;2023-05-14T10:37:16;15.80;99.90
67273;DHT22;54190;49.770;9.250;2023-05-14T10:42:10;15.80;99.90
67273;DHT22;54190;49.770;9.250;2023-05-14T10:44:40;15.80;99.90
67273;DHT22;54190;49.770;9.250;2023-05-14T10:47:07;15.80;99.90
67273;DHT22;54190;49.770;9.250;2023-05-14T10:49:33;15.70;99.90
67273;DHT22;54190;49.770;9.250;2023-05-14T10:51:59;15.70;99.90
67273;DHT22;54190;49.770;9.250;2023-05-14T10:54:27;15.70;99.90
67273;DHT22;54190;49.770;9.250;2023-05-14T10:56:53;15.70;99.90
67273;DHT22;54190;49.770;9.250;2023-05-14T10:59:18;15.70;99.90
67273;DHT22;54190;49.770;9.250;2023-05-14T11:01:44;15.70;99.90
67273;DHT22;54190;49.770;9.250;2023-05-14T11:04:17;15.70;99.90
67273;DHT22;54190;49.770;9.250;2023-05-14T11:06:46;15.70;99.90
67273;DHT22;54190;49.770;9.250;2023-05-14T11:09:16;15.60;99.90
67273;DHT22;54190;49.770;9.250;2023-05-14T11:11:42;15.60;99.90
67273;DHT22;54190;49.770;9.250;2023-05-14T11:14:09;15.60;99.90
67273;DHT22;54190;49.770;9.250;2023-05-14T11:16:35;15.50;99.90
67273;DHT22;54190;49.770;9.250;2023-05-14T11:19:03;15.50;99.90
67273;DHT22;54190;49.770;9.250;2023-05-14T11:21:29;15.50;99.90
67273;DHT22;54190;49.770;9.250;2023-05-14T11:23:59;15.60;99.90
67273;DHT22;54190;49.770;9.250;2023-05-14T11:26:25;15.60;99.90
67273;DHT22;54190;49.770;9.250;2023-05-14T11:28:51;15.70;99.90
67273;DHT22;54190;49.770;9.250;2023-05-14T11:31:17;15.80;99.90
67273;DHT22;54190;49.770;9.250;2023-05-14T11:33:43;15.70;99.90
67273;DHT22;54190;49.770;9.250;2023-05-14T11:36:12;15.50;99.90
67273;DHT22;54190;49.770;9.250;2023-05-14T11:38:47;15.50;99.90
67273;DHT22;54190;49.770;9.250;2023-05-14T11:41:13;15.60;99.90
67273;DHT22;54190;49.770;9.250;2023-05-14T11:43:39;15.70;99.90
67273;DHT22;54190;49.770;9.250;2023-05-14T11:46:05;15.80;99.90
67273;DHT22;54190;49.770;9.250;2023-05-14T11:48:32;15.90;99.90
67273;DHT22;54190;49.770;9.250;2023-05-14T11:50:57;16.00;99.90
67273;DHT22;54190;49.770;9.250;2023-05-14T11:53:29;16.10;99.90
67273;DHT22;54190;49.770;9.250;2023-05-14T11:55:54;16.10;99.90
67273;DHT22;54190;49.770;9.250;2023-05-14T11:58:23;16.10;99.90
67273;DHT22;54190;49.770;9.250;2023-05-14T12:00:49;16.00;99.90
67273;DHT22;54190;49.770;9.250;2023-05-14T12:03:17;16.00;99.90
67273;DHT22;54190;49.770;9.250;2023-05-14T12:05:59;16.00;99.90
67273;DHT22;54190;49.770;9.250;2023-05-14T12:08:27;16.20;99.90
67273;DHT22;54190;49.770;9.250;2023-05-14T12:10:53;16.30;99.90
67273;DHT22;54190;49.770;9.250;2023-05-14T12:13:19;16.40;99.90
67273;DHT22;54190;49.770;9.250;2023-05-14T12:15:46;16.40;99.90
67273;DHT22;54190;49.770;9.250;2023-05-14T12:18:13;16.40;99.90
67273;DHT22;54190;49.770;9.250;2023-05-14T12:20:39;16.30;99.90
67273;DHT22;54190;49.770;9.250;2023-05-14T12:23:10;16.30;99.90
67273;DHT22;54190;49.770;9.250;2023-05-14T12:25:37;16.40;99.90
67273;DHT22;54190;49.770;9.250;2023-05-14T12:28:13;16.50;99.90
67273;DHT22;54190;49.770;9.250;2023-05-14T12:30:39;16.50;99.90
67273;DHT22;54190;49.770;9.250;2023-05-14T12:33:05;16.60;99.90
67273;DHT22;54190;49.770;9.250;2023-05-14T12:35:31;16.60;99.90
67273;DHT22;54190;49.770;9.250;2023-05-14T12:37:57;16.80;99.90
67273;DHT22;54190;49.770;9.250;2023-05-14T12:40:23;16.90;99.90
67273;DHT22;54190;49.770;9.250;2023-05-14T12:42:48;17.00;99.90
67273;DHT22;54190;49.770;9.250;2023-05-14T12:45:14;17.10;99.90
67273;DHT22;54190;49.770;9.250;2023-05-14T12:47:40;17.40;99.90
67273;DHT22;54190;49.770;9.250;2023-05-14T12:50:06;17.80;99.90
67273;DHT22;54190;49.770;9.250;2023-05-14T12:52:32;18.20;99.90
67273;DHT22;54190;49.770;9.250;2023-05-14T12:54:57;18.50;99.90
67273;DHT22;54190;49.770;9.250;2023-05-14T12:57:23;18.60;99.90
67273;DHT22;54190;49.770;9.250;2023-05-14T12:59:49;18.80;99.90
67273;DHT22;54190;49.770;9.250;2023-05-14T13:02:15;18.60;98.50
67273;DHT22;54190;49.770;9.250;2023-05-14T13:04:42;18.30;99.60
67273;DHT22;54190;49.770;9.250;2023-05-14T13:07:07;18.30;99.90
67273;DHT22;54190;49.770;9.250;2023-05-14T13:09:33;18.30;99.90
67273;DHT22;54190;49.770;9.250;2023-05-14T13:11:59;18.30;99.90
67273;DHT22;54190;49.770;9.250;2023-05-14T13:14:24;18.30;99.90
67273;DHT22;54190;49.770;9.250;2023-05-14T13:16:50;18.20;98.80
67273;DHT22;54190;49.770;9.250;2023-05-14T13:19:15;17.90;99.20
67273;DHT22;54190;49.770;9.250;2023-05-14T13:21:41;17.50;99.40
67273;DHT22;54190;49.770;9.250;2023-05-14T13:24:08;17.50;99.90
67273;DHT22;54190;49.770;9.250;2023-05-14T13:26:35;17.60;99.90
67273;DHT22;54190;49.770;9.250;2023-05-14T13:29:01;17.60;99.70
67273;DHT22;54190;49.770;9.250;2023-05-14T13:31:27;17.70;99.90
67273;DHT22;54190;49.770;9.250;2023-05-14T13:33:53;17.80;99.90
67273;DHT22;54190;49.770;9.250;2023-05-14T13:36:18;17.80;99.90
67273;DHT22;54190;49.770;9.250;2023-05-14T13:38:44;17.70;99.00
67273;DHT22;54190;49.770;9.250;2023-05-14T13:41:12;17.50;98.50
67273;DHT22;54190;49.770;9.250;2023-05-14T13:43:38;17.30;99.90
67273;DHT22;54190;49.770;9.250;2023-05-14T13:46:04;17.30;99.90
67273;DHT22;54190;49.770;9.250;2023-05-14T13:48:31;17.50;99.40
67273;DHT22;54190;49.770;9.250;2023-05-14T13:50:57;17.70;99.40
67273;DHT22;54190;49.770;9.250;2023-05-14T13:53:23;18.00;98.40
67273;DHT22;54190;49.770;9.250;2023-05-14T13:55:49;18.20;99.90
67273;DHT22;54190;49.770;9.250;2023-05-14T13:58:21;18.60;99.90
67273;DHT22;54190;49.770;9.250;2023-05-14T14:00:47;19.00;99.90
67273;DHT22;54190;49.770;9.250;2023-05-14T14:03:12;19.30;98.80
67273;DHT22;54190;49.770;9.250;2023-05-14T14:05:38;19.50;99.20
67273;DHT22;54190;49.770;9.250;2023-05-14T14:08:04;19.30;96.90
67273;DHT22;54190;49.770;9.250;2023-05-14T14:10:30;19.00;97.20
67273;DHT22;54190;49.770;9.250;2023-05-14T14:12:55;18.70;98.20
67273;DHT22;54190;49.770;9.250;2023-05-14T14:15:21;18.60;98.00
67273;DHT22;54190;49.770;9.250;2023-05-14T14:17:47;18.40;99.10
67273;DHT22;54190;49.770;9.250;2023-05-14T14:20:13;18.40;99.10
67273;DHT22;54190;49.770;9.250;2023-05-14T14:22:41;18.20;97.10
67273;DHT22;54190;49.770;9.250;2023-05-14T14:25:07;18.00;99.00
67273;DHT22;54190;49.770;9.250;2023-05-14T14:27:33;18.00;98.60
67273;DHT22;54190;49.770;9.250;2023-05-14T14:30:07;18.00;98.40
67273;DHT22;54190;49.770;9.250;2023-05-14T14:32:34;18.00;98.30
67273;DHT22;54190;49.770;9.250;2023-05-14T14:35:00;17.90;97.90
67273;DHT22;54190;49.770;9.250;2023-05-14T14:37:25;17.70;97.60
67273;DHT22;54190;49.770;9.250;2023-05-14T14:39:51;17.40;98.20
67273;DHT22;54190;49.770;9.250;2023-05-14T14:42:17;17.30;98.30
67273;DHT22;54190;49.770;9.250;2023-05-14T14:44:42;17.40;98.30
67273;DHT22;54190;49.770;9.250;2023-05-14T14:47:09;17.70;99.90
67273;DHT22;54190;49.770;9.250;2023-05-14T14:49:35;17.90;98.80
67273;DHT22;54190;49.770;9.250;2023-05-14T14:52:01;18.10;99.90
67273;DHT22;54190;49.770;9.250;2023-05-14T14:54:26;18.40;98.00
67273;DHT22;54190;49.770;9.250;2023-05-14T14:56:52;18.80;97.40
67273;DHT22;54190;49.770;9.250;2023-05-14T14:59:17;19.10;97.20
67273;DHT22;54190;49.770;9.250;2023-05-14T15:01:43;19.30;96.20
67273;DHT22;54190;49.770;9.250;2023-05-14T15:04:09;19.20;97.40
67273;DHT22;54190;49.770;9.250;2023-05-14T15:06:34;19.10;95.70
67273;DHT22;54190;49.770;9.250;2023-05-14T15:09:00;18.80;96.00
67273;DHT22;54190;49.770;9.250;2023-05-14T15:11:26;18.60;97.20
67273;DHT22;54190;49.770;9.250;2023-05-14T15:13:53;18.80;96.30
67273;DHT22;54190;49.770;9.250;2023-05-14T15:16:18;18.90;96.80
67273;DHT22;54190;49.770;9.250;2023-05-14T15:18:44;19.00;95.60
67273;DHT22;54190;49.770;9.250;2023-05-14T15:21:10;19.10;97.30
67273;DHT22;54190;49.770;9.250;2023-05-14T15:23:35;19.40;96.60
67273;DHT22;54190;49.770;9.250;2023-05-14T15:26:01;19.70;97.00
67273;DHT22;54190;49.770;9.250;2023-05-14T15:28:27;19.90;97.10
67273;DHT22;54190;49.770;9.250;2023-05-14T15:30:52;20.20;96.20
67273;DHT22;54190;49.770;9.250;2023-05-14T15:33:19;20.50;97.10
67273;DHT22;54190;49.770;9.250;2023-05-14T15:35:45;20.70;95.80
67273;DHT22;54190;49.770;9.250;2023-05-14T15:38:10;20.90;94.00